createdAt,value
2023-04-08T00:01:37.389Z,18.50
2023-04-08T00:04:06.093Z,19.75
2023-04-08T00:06:34.929Z,20.25
2023-04-08T00:09:04.340Z,19.75
2023-04-08T00:11:32.956Z,19.25
2023-04-08T00:14:02.025Z,17.50
2023-04-08T00:16:30.425Z,19.25
2023-04-08T00:19:01.467Z,20.00
2023-04-08T00:21:29.896Z,19.25
2023-04-08T00:23:58.216Z,17.75
2023-04-08T00:26:27.393Z,20.00
2023-04-08T00:28:56.861Z,21.50
2023-04-08T00:31:25.408Z,20.50
2023-04-08T00:33:53.916Z,21.50
2023-04-08T00:36:22.263Z,20.00
2023-04-08T00:38:54.060Z,20.75
2023-04-08T00:41:22.533Z,21.75
2023-04-08T00:43:50.955Z,20.50
2023-04-08T00:46:19.748Z,21.25
2023-04-08T00:48:50.405Z,19.75
2023-04-08T00:51:19.525Z,20.75
2023-04-08T00:53:47.928Z,21.00
2023-04-08T00:56:16.315Z,23.25
2023-04-08T00:58:46.568Z,24.75
2023-04-08T01:01:24.945Z,23.50
2023-04-08T01:04:08.566Z,23.00
2023-04-08T01:06:36.909Z,21.75
2023-04-08T01:09:07.285Z,21.50
2023-04-08T01:11:39.763Z,23.00
2023-04-08T01:14:11.219Z,22.75
2023-04-08T01:16:43.705Z,20.75
2023-04-08T01:19:25.711Z,21.75
2023-04-08T01:21:56.395Z,21.50
2023-04-08T01:24:35.123Z,20.75
2023-04-08T01:27:05.253Z,20.75
2023-04-08T01:29:35.289Z,18.50
2023-04-08T01:32:04.650Z,21.50
2023-04-08T01:34:34.395Z,21.75
2023-04-08T01:37:05.294Z,20.75
2023-04-08T01:39:35.108Z,20.00
2023-04-08T01:42:04.593Z,21.50
2023-04-08T01:44:34.561Z,20.00
2023-04-08T01:47:04.679Z,20.00
2023-04-08T01:49:33.884Z,20.00
2023-04-08T01:52:02.914Z,19.25
2023-04-08T01:54:31.308Z,19.25
2023-04-08T01:57:02.560Z,19.50
2023-04-08T01:59:36.440Z,20.50
2023-04-08T02:02:08.435Z,21.75
2023-04-08T02:04:37.790Z,21.50
2023-04-08T02:07:07.176Z,19.00
2023-04-08T02:09:35.829Z,19.75
2023-04-08T02:12:04.335Z,18.75
2023-04-08T02:14:33.209Z,19.00
2023-04-08T02:17:11.886Z,19.00
2023-04-08T02:19:50.150Z,19.50
2023-04-08T02:22:31.359Z,20.50
2023-04-08T02:25:01.757Z,20.25
2023-04-08T02:27:34.938Z,20.25
2023-04-08T02:30:06.920Z,19.75
2023-04-08T02:32:36.925Z,19.75
2023-04-08T02:35:06.602Z,20.75
2023-04-08T02:37:35.481Z,19.75
2023-04-08T02:40:04.097Z,19.00
2023-04-08T02:42:32.496Z,19.25
2023-04-08T02:45:00.846Z,21.25
2023-04-08T02:47:29.218Z,20.00
2023-04-08T02:49:57.575Z,20.50
2023-04-08T02:52:25.935Z,20.00
2023-04-08T02:54:54.276Z,19.00
2023-04-08T02:57:22.782Z,21.00
2023-04-08T02:59:51.155Z,21.25
2023-04-08T03:02:19.698Z,20.25
2023-04-08T03:04:48.065Z,20.25
2023-04-08T03:07:16.650Z,19.50
2023-04-08T03:09:45.011Z,20.50
2023-04-08T03:12:13.396Z,19.00
2023-04-08T03:14:41.839Z,19.25
2023-04-08T03:17:10.267Z,20.75
2023-04-08T03:19:38.669Z,21.25
2023-04-08T03:22:07.171Z,20.00
2023-04-08T03:24:35.488Z,20.00
2023-04-08T03:27:04.939Z,19.25
2023-04-08T03:29:33.684Z,18.75
2023-04-08T03:32:02.395Z,19.25
2023-04-08T03:34:30.812Z,20.75
2023-04-08T03:36:59.142Z,18.75
2023-04-08T03:39:27.687Z,16.00
2023-04-08T03:41:56.075Z,19.25
2023-04-08T03:44:24.556Z,19.25
2023-04-08T03:46:52.943Z,17.50
2023-04-08T03:49:21.422Z,17.25
2023-04-08T03:51:49.819Z,17.50
2023-04-08T03:54:18.201Z,18.25
2023-04-08T03:56:46.586Z,18.75
2023-04-08T03:59:14.966Z,19.25
2023-04-08T04:01:43.357Z,18.00
2023-04-08T04:04:12.224Z,19.75
2023-04-08T04:06:40.716Z,18.00
2023-04-08T04:09:09.145Z,19.25
2023-04-08T04:11:37.527Z,16.75
2023-04-08T04:14:05.991Z,19.25
2023-04-08T04:16:34.325Z,21.25
2023-04-08T04:19:02.828Z,19.25
2023-04-08T04:21:31.335Z,19.50
2023-04-08T04:23:59.692Z,19.25
2023-04-08T04:26:28.066Z,22.25
2023-04-08T04:28:56.905Z,20.00
2023-04-08T04:31:29.124Z,21.00
2023-04-08T04:33:57.566Z,20.00
2023-04-08T04:36:26.078Z,21.25
2023-04-08T04:38:54.566Z,22.25
2023-04-08T04:41:23.340Z,21.75
2023-04-08T04:43:51.951Z,23.00
2023-04-08T04:46:20.331Z,21.50
2023-04-08T04:48:49.032Z,21.75
2023-04-08T04:51:17.592Z,21.25
2023-04-08T04:53:45.904Z,18.25
2023-04-08T04:56:14.359Z,20.25
2023-04-08T04:58:43.274Z,17.25
2023-04-08T05:01:11.981Z,20.25
2023-04-08T05:03:40.528Z,20.00
2023-04-08T05:06:08.875Z,20.25
2023-04-08T05:08:37.678Z,19.75
2023-04-08T05:11:06.469Z,19.75
2023-04-08T05:13:34.823Z,20.50
2023-04-08T05:16:03.485Z,20.50
2023-04-08T05:18:31.911Z,21.00
2023-04-08T05:21:00.344Z,20.00
2023-04-08T05:23:28.700Z,20.50
2023-04-08T05:25:57.697Z,19.25
2023-04-08T05:28:26.097Z,18.25
2023-04-08T05:30:55.501Z,21.00
2023-04-08T05:33:23.894Z,21.50
2023-04-08T05:35:52.281Z,17.25
2023-04-08T05:38:20.756Z,19.25
2023-04-08T05:40:49.161Z,17.75
2023-04-08T05:43:17.572Z,21.00
2023-04-08T05:45:45.937Z,20.00
2023-04-08T05:48:14.420Z,19.25
2023-04-08T05:50:42.952Z,19.25
2023-04-08T05:53:11.807Z,20.25
2023-04-08T05:55:40.183Z,20.00
2023-04-08T05:58:08.725Z,21.00
2023-04-08T06:00:37.106Z,19.75
2023-04-08T06:03:05.705Z,20.25
2023-04-08T06:05:34.344Z,20.25
2023-04-08T06:08:02.692Z,19.25
2023-04-08T06:10:31.031Z,18.50
2023-04-08T06:12:59.395Z,16.75
2023-04-08T06:15:28.935Z,20.50
2023-04-08T06:17:57.314Z,18.75
2023-04-08T06:20:25.792Z,19.75
2023-04-08T06:22:54.160Z,17.75
2023-04-08T06:25:22.548Z,19.25
2023-04-08T06:27:50.911Z,18.75
2023-04-08T06:30:19.323Z,18.75
2023-04-08T06:32:50.359Z,19.50
2023-04-08T06:35:19.481Z,18.50
2023-04-08T06:37:47.835Z,19.50
2023-04-08T06:40:16.358Z,20.25
2023-04-08T06:42:45.517Z,20.50
2023-04-08T06:45:13.869Z,19.75
2023-04-08T06:47:42.309Z,17.75
2023-04-08T06:50:11.305Z,17.75
2023-04-08T06:52:39.829Z,18.50
2023-04-08T06:55:08.383Z,20.25
2023-04-08T06:57:36.695Z,19.75
2023-04-08T07:00:05.580Z,19.75
2023-04-08T07:02:34.029Z,19.00
2023-04-08T07:05:02.580Z,19.00
2023-04-08T07:07:31.207Z,18.50
2023-04-08T07:09:59.546Z,19.25
2023-04-08T07:12:27.890Z,17.25
2023-04-08T07:14:56.287Z,18.75
2023-04-08T07:17:24.642Z,18.25
2023-04-08T07:19:53.227Z,18.00
2023-04-08T07:22:21.925Z,18.75
2023-04-08T07:24:50.780Z,18.75
2023-04-08T07:27:19.183Z,16.00
2023-04-08T07:29:49.813Z,15.50
2023-04-08T07:32:18.458Z,17.75
2023-04-08T07:34:46.837Z,18.50
2023-04-08T07:37:15.197Z,19.00
2023-04-08T07:39:43.574Z,17.50
2023-04-08T07:42:11.957Z,14.75
2023-04-08T07:44:40.404Z,16.00
2023-04-08T07:47:08.773Z,19.75
2023-04-08T07:49:37.671Z,17.25
2023-04-08T07:52:07.296Z,18.00
2023-04-08T07:54:35.834Z,19.00
2023-04-08T07:57:04.242Z,19.00
2023-04-08T07:59:33.850Z,18.75
2023-04-08T08:02:02.388Z,17.25
2023-04-08T08:04:30.960Z,17.00
2023-04-08T08:06:59.491Z,21.25
2023-04-08T08:09:27.848Z,20.00
2023-04-08T08:11:56.260Z,20.75
2023-04-08T08:14:24.651Z,17.50
2023-04-08T08:16:53.615Z,19.75
2023-04-08T08:19:22.757Z,20.00
2023-04-08T08:21:51.503Z,19.25
2023-04-08T08:24:19.886Z,19.75
2023-04-08T08:26:50.169Z,21.00
2023-04-08T08:29:18.569Z,20.50
2023-04-08T08:31:47.195Z,20.75
2023-04-08T08:34:16.008Z,19.50
2023-04-08T08:36:44.443Z,19.25
2023-04-08T08:39:13.500Z,20.50
2023-04-08T08:41:43.252Z,20.75
2023-04-08T08:44:12.257Z,20.00
2023-04-08T08:46:49.022Z,21.25
2023-04-08T08:49:17.478Z,20.75
2023-04-08T08:51:48.314Z,20.75
2023-04-08T08:54:17.114Z,22.75
2023-04-08T08:56:45.478Z,21.00
2023-04-08T08:59:13.890Z,22.75
2023-04-08T09:01:42.689Z,22.50
2023-04-08T09:04:13.251Z,23.00
2023-04-08T09:06:42.343Z,22.50
2023-04-08T09:09:13.482Z,24.75
2023-04-08T09:11:43.611Z,23.25
2023-04-08T09:14:25.882Z,22.00
2023-04-08T09:16:54.889Z,20.00
2023-04-08T09:19:23.355Z,17.75
2023-04-08T09:22:14.214Z,16.50
2023-04-08T09:24:42.893Z,18.25
2023-04-08T09:27:11.388Z,17.50
2023-04-08T09:29:40.121Z,14.50
2023-04-08T09:32:08.743Z,17.25
2023-04-08T09:34:37.592Z,16.50
2023-04-08T09:37:06.013Z,16.75
2023-04-08T09:39:34.505Z,18.75
2023-04-08T09:42:09.192Z,18.50
2023-04-08T09:44:39.231Z,19.50
2023-04-08T09:47:20.301Z,19.75
2023-04-08T09:49:56.446Z,21.50
2023-04-08T09:52:50.755Z,20.25
2023-04-08T09:55:24.664Z,19.50
2023-04-08T09:58:28.587Z,19.75
2023-04-08T10:00:57.138Z,19.25
2023-04-08T10:03:41.441Z,20.50
2023-04-08T10:06:12.969Z,19.75
2023-04-08T10:08:41.834Z,20.75
2023-04-08T10:11:10.503Z,20.75
2023-04-08T10:13:39.309Z,20.50
2023-04-08T10:16:28.463Z,21.75
2023-04-08T10:18:58.311Z,21.75
2023-04-08T10:21:37.675Z,21.75
2023-04-08T10:24:13.296Z,22.25
2023-04-08T10:26:44.308Z,21.75
2023-04-08T10:29:31.930Z,22.25
2023-04-08T10:32:00.540Z,19.75
2023-04-08T10:34:29.280Z,20.75
2023-04-08T10:37:00.001Z,20.75
2023-04-08T10:39:28.486Z,21.50
2023-04-08T10:41:57.382Z,22.00
2023-04-08T10:44:28.651Z,22.00
2023-04-08T10:46:57.571Z,22.00
2023-04-08T10:49:34.836Z,24.75
2023-04-08T10:52:08.791Z,24.50
2023-04-08T10:54:39.404Z,23.50
2023-04-08T10:57:08.481Z,22.25
2023-04-08T10:59:37.868Z,24.25
2023-04-08T11:02:06.343Z,24.25
2023-04-08T11:04:34.923Z,24.25
2023-04-08T11:07:09.065Z,23.25
2023-04-08T11:09:37.498Z,25.00
2023-04-08T11:12:06.203Z,24.25
2023-04-08T11:14:34.810Z,24.25
2023-04-08T11:17:03.300Z,25.50
2023-04-08T11:19:31.744Z,24.25
2023-04-08T11:22:00.285Z,24.50
2023-04-08T11:24:29.361Z,25.50
2023-04-08T11:26:58.152Z,25.00
2023-04-08T11:29:26.592Z,27.25
2023-04-08T11:31:55.073Z,26.25
2023-04-08T11:34:26.737Z,25.75
2023-04-08T11:36:57.809Z,26.50
2023-04-08T11:39:27.348Z,27.50
2023-04-08T11:41:56.331Z,26.50
2023-04-08T11:44:34.455Z,27.25
2023-04-08T11:47:03.935Z,28.75
2023-04-08T11:49:46.704Z,27.75
2023-04-08T11:52:15.512Z,26.75
2023-04-08T11:54:44.587Z,27.50
2023-04-08T11:57:13.033Z,27.75
2023-04-08T11:59:41.427Z,29.25
2023-04-08T12:02:10.388Z,29.00
2023-04-08T12:04:38.985Z,27.25
2023-04-08T12:07:07.399Z,27.50
2023-04-08T12:09:35.790Z,26.50
2023-04-08T12:12:04.355Z,26.50
2023-04-08T12:14:32.719Z,26.00
2023-04-08T12:17:01.040Z,26.50
2023-04-08T12:19:29.864Z,27.25
2023-04-08T12:21:59.249Z,26.50
2023-04-08T12:24:27.693Z,26.25
2023-04-08T12:26:57.304Z,27.25
2023-04-08T12:29:25.696Z,28.75
2023-04-08T12:31:54.335Z,27.00
2023-04-08T12:34:23.518Z,26.50
2023-04-08T12:36:52.025Z,28.00
2023-04-08T12:39:20.874Z,27.75
2023-04-08T12:41:49.618Z,26.50
2023-04-08T12:44:18.246Z,27.75
2023-04-08T12:46:47.200Z,27.50
2023-04-08T12:49:15.662Z,27.00
2023-04-08T12:51:44.039Z,26.50
2023-04-08T12:54:12.452Z,28.25
2023-04-08T12:56:40.871Z,27.25
2023-04-08T12:59:09.181Z,26.75
2023-04-08T13:01:37.625Z,29.00
2023-04-08T13:04:06.314Z,27.75
2023-04-08T13:06:34.728Z,27.25
2023-04-08T13:09:03.133Z,28.00
2023-04-08T13:11:31.907Z,28.25
2023-04-08T13:14:00.356Z,27.75
2023-04-08T13:16:28.829Z,27.50
2023-04-08T13:18:57.172Z,28.75
2023-04-08T13:21:25.775Z,27.25
2023-04-08T13:23:54.110Z,27.75
2023-04-08T13:26:22.502Z,28.75
2023-04-08T13:28:57.297Z,28.50
2023-04-08T13:31:28.403Z,27.75
2023-04-08T13:33:58.217Z,26.50
2023-04-08T13:36:29.446Z,28.25
2023-04-08T13:38:58.636Z,27.25
2023-04-08T13:41:28.964Z,27.25
2023-04-08T13:43:57.765Z,28.50
2023-04-08T13:46:26.346Z,28.67
2023-04-08T13:48:54.943Z,28.25
2023-04-08T13:51:23.479Z,27.00
2023-04-08T13:53:52.102Z,27.50
2023-04-08T13:56:20.485Z,26.50
2023-04-08T13:58:56.471Z,26.75
2023-04-08T14:01:25.955Z,25.75
2023-04-08T14:03:54.476Z,26.50
2023-04-08T14:06:22.948Z,27.75
2023-04-08T14:08:51.966Z,26.50
2023-04-08T14:11:20.481Z,26.25
2023-04-08T14:13:48.819Z,26.50
2023-04-08T14:16:17.790Z,25.50
2023-04-08T14:18:46.406Z,27.75
2023-04-08T14:21:16.653Z,25.00
2023-04-08T14:23:45.079Z,26.50
2023-04-08T14:26:13.394Z,25.75
2023-04-08T14:28:41.966Z,26.50
2023-04-08T14:31:10.407Z,26.25
2023-04-08T14:33:40.072Z,27.50
2023-04-08T14:36:08.660Z,25.50
2023-04-08T14:38:37.249Z,26.75
2023-04-08T14:41:05.659Z,26.00
2023-04-08T14:43:34.019Z,26.00
2023-04-08T14:46:02.388Z,26.50
2023-04-08T14:48:31.756Z,26.50
2023-04-08T14:51:00.992Z,26.00
2023-04-08T14:53:29.396Z,25.50
2023-04-08T14:55:57.737Z,25.25
2023-04-08T14:58:26.414Z,25.50
2023-04-08T15:00:55.048Z,25.50
2023-04-08T15:03:23.790Z,24.75
2023-04-08T15:05:52.239Z,25.00
2023-04-08T15:08:20.608Z,25.00
2023-04-08T15:10:49.023Z,24.25
2023-04-08T15:13:17.636Z,24.00
2023-04-08T15:15:46.093Z,25.25
2023-04-08T15:18:14.474Z,25.50
2023-04-08T15:20:42.892Z,25.50
2023-04-08T15:23:11.268Z,25.25
2023-04-08T15:25:39.807Z,25.25
2023-04-08T15:28:08.918Z,23.50
2023-04-08T15:30:37.335Z,22.75
2023-04-08T15:33:06.117Z,26.25
2023-04-08T15:35:34.735Z,25.50
2023-04-08T15:38:03.395Z,24.50
2023-04-08T15:40:35.208Z,25.25
2023-04-08T15:43:04.819Z,23.00
2023-04-08T15:45:34.345Z,23.50
2023-04-08T15:48:02.715Z,25.25
2023-04-08T15:50:31.669Z,25.00
2023-04-08T15:53:00.061Z,23.25
2023-04-08T15:55:28.417Z,25.75
2023-04-08T15:57:58.062Z,23.50
2023-04-08T16:02:55.518Z,25.25
2023-04-08T16:05:24.040Z,24.50
2023-04-08T16:07:52.771Z,25.25
2023-04-08T16:10:21.234Z,24.50
2023-04-08T16:12:50.268Z,23.75
2023-04-08T16:15:18.677Z,25.75
2023-04-08T16:17:53.462Z,24.25
2023-04-08T16:20:22.683Z,24.25
2023-04-08T16:22:51.338Z,25.25
2023-04-08T16:25:19.738Z,24.75
2023-04-08T16:27:48.829Z,23.75
2023-04-08T16:30:17.348Z,25.50
2023-04-08T16:32:46.063Z,24.50
2023-04-08T16:35:15.085Z,25.50
2023-04-08T16:37:43.506Z,25.25
2023-04-08T16:40:12.357Z,26.25
2023-04-08T16:42:40.717Z,26.25
2023-04-08T16:45:09.846Z,28.25
2023-04-08T16:47:40.183Z,23.50
2023-04-08T16:50:10.138Z,24.00
2023-04-08T16:52:38.583Z,23.75
2023-04-08T16:55:07.582Z,25.25
2023-04-08T16:57:35.878Z,24.50
2023-04-08T17:00:04.546Z,25.50
2023-04-08T17:02:33.022Z,25.25
2023-04-08T17:05:01.664Z,26.25
2023-04-08T17:07:30.463Z,26.75
2023-04-08T17:09:58.843Z,25.00
2023-04-08T17:12:27.953Z,25.50
2023-04-08T17:14:56.346Z,25.25
2023-04-08T17:17:24.683Z,25.50
2023-04-08T17:19:53.102Z,26.50
2023-04-08T17:22:22.462Z,25.50
2023-04-08T17:24:50.885Z,27.00
2023-04-08T17:27:19.276Z,25.75
2023-04-08T17:29:47.700Z,24.00
2023-04-08T17:32:16.490Z,25.75
2023-04-08T17:34:44.829Z,25.00
2023-04-08T17:37:13.192Z,25.00
2023-04-08T17:39:41.921Z,25.00
2023-04-08T17:42:10.385Z,25.25
2023-04-08T17:44:39.366Z,25.50
2023-04-08T17:47:07.740Z,25.50
2023-04-08T17:49:36.477Z,24.50
2023-04-08T17:52:04.916Z,25.50
2023-04-08T17:54:35.407Z,23.50
2023-04-08T17:57:04.243Z,24.75
2023-04-08T17:59:32.694Z,24.75
2023-04-08T18:02:01.202Z,24.50
2023-04-08T18:04:30.817Z,25.25
2023-04-08T18:06:59.203Z,26.25
2023-04-08T18:09:27.572Z,26.00
2023-04-08T18:11:55.953Z,25.50
2023-04-08T18:14:24.310Z,25.50
2023-04-08T18:16:52.781Z,25.50
2023-04-08T18:19:21.183Z,25.00
2023-04-08T18:21:50.147Z,24.25
2023-04-08T18:24:18.510Z,24.50
2023-04-08T18:26:54.326Z,23.75
2023-04-08T18:29:26.342Z,24.25
2023-04-08T18:31:54.755Z,26.00
2023-04-08T18:34:25.526Z,26.50
2023-04-08T18:36:54.121Z,24.25
2023-04-08T18:39:22.530Z,25.75
2023-04-08T18:41:50.894Z,24.25
2023-04-08T18:44:19.282Z,25.50
2023-04-08T18:46:47.657Z,23.25
2023-04-08T18:49:16.385Z,23.75
2023-04-08T18:51:55.444Z,25.00
2023-04-08T18:54:30.671Z,26.50
2023-04-08T18:56:59.361Z,25.50
2023-04-08T18:59:30.918Z,24.50
2023-04-08T19:01:59.486Z,24.75
2023-04-08T19:04:28.245Z,25.00
2023-04-08T19:06:57.317Z,22.00
2023-04-08T19:09:25.756Z,22.75
2023-04-08T19:11:54.509Z,23.25
2023-04-08T19:14:22.947Z,22.00
2023-04-08T19:16:51.287Z,22.75
2023-04-08T19:19:19.688Z,21.25
2023-04-08T19:21:48.910Z,22.50
2023-04-08T19:24:17.407Z,19.75
2023-04-08T19:26:45.817Z,21.00
2023-04-08T19:29:14.790Z,22.25
2023-04-08T19:31:43.348Z,19.75
2023-04-08T19:34:12.233Z,21.00
2023-04-08T19:36:40.594Z,21.50
2023-04-08T19:39:08.979Z,19.25
2023-04-08T19:41:37.696Z,19.00
2023-04-08T19:44:06.345Z,18.75
2023-04-08T19:46:34.936Z,20.00
2023-04-08T19:49:03.385Z,19.00
2023-04-08T19:51:33.428Z,19.25
2023-04-08T19:54:01.781Z,19.75
2023-04-08T19:56:34.747Z,19.25
2023-04-08T19:59:03.208Z,19.25
2023-04-08T20:01:31.846Z,18.25
2023-04-08T20:04:00.329Z,15.50
2023-04-08T20:06:29.257Z,16.25
2023-04-08T20:08:58.151Z,16.00
2023-04-08T20:11:26.588Z,13.75
2023-04-08T20:13:55.097Z,15.50
2023-04-08T20:16:23.885Z,17.25
2023-04-08T20:18:52.586Z,15.25
2023-04-08T20:21:21.254Z,16.75
2023-04-08T20:23:49.582Z,14.50
2023-04-08T20:26:17.938Z,12.50
2023-04-08T20:28:47.106Z,16.00
2023-04-08T20:31:15.666Z,16.50
2023-04-08T20:36:33.703Z,15.25
2023-04-08T20:39:02.107Z,13.75
2023-04-08T20:41:30.545Z,14.50
2023-04-08T20:43:58.910Z,13.25
2023-04-08T20:46:27.563Z,13.75
2023-04-08T20:48:55.929Z,13.00
2023-04-08T20:51:24.668Z,15.25
2023-04-08T20:53:53.063Z,14.50
2023-04-08T20:56:22.044Z,13.50
2023-04-08T20:58:50.809Z,13.25
2023-04-08T21:01:19.482Z,13.50
2023-04-08T21:03:47.919Z,13.25
2023-04-08T21:06:20.581Z,12.25
2023-04-08T21:08:50.112Z,14.00
2023-04-08T21:11:19.064Z,12.00
2023-04-08T21:13:49.089Z,13.25
2023-04-08T21:16:18.096Z,10.50
2023-04-08T21:18:46.485Z,9.50
2023-04-08T21:21:15.370Z,10.00
2023-04-08T21:23:43.691Z,10.75
2023-04-08T21:26:14.222Z,12.00
2023-04-08T21:28:42.828Z,9.00
2023-04-08T21:31:12.284Z,9.50
2023-04-08T21:33:41.620Z,9.25
2023-04-08T21:36:10.133Z,9.50
2023-04-08T21:38:38.489Z,10.50
2023-04-08T21:41:06.922Z,10.00
2023-04-08T21:43:35.329Z,10.00
2023-04-08T21:46:03.820Z,8.75
2023-04-08T21:48:32.268Z,9.25
2023-04-08T21:51:00.618Z,9.00
2023-04-08T21:53:29.073Z,9.00
2023-04-08T21:55:57.623Z,8.00
2023-04-08T21:58:25.994Z,8.75
2023-04-08T22:00:54.373Z,7.00
2023-04-08T22:03:22.937Z,8.25
2023-04-08T22:05:51.860Z,7.25
2023-04-08T22:08:20.321Z,8.00
2023-04-08T22:10:48.794Z,7.50
2023-04-08T22:13:19.666Z,8.50
2023-04-08T22:15:47.994Z,8.00
2023-04-08T22:18:16.502Z,7.00
2023-04-08T22:20:44.853Z,8.00
2023-04-08T22:23:13.187Z,7.75
2023-04-08T22:25:41.606Z,6.25
2023-04-08T22:28:09.953Z,6.50
2023-04-08T22:30:38.285Z,7.00
2023-04-08T22:33:06.656Z,6.75
2023-04-08T22:35:35.212Z,7.00
2023-04-08T22:38:03.728Z,6.75
2023-04-08T22:40:32.263Z,7.25
2023-04-08T22:43:00.612Z,6.75
2023-04-08T22:45:28.947Z,6.25
2023-04-08T22:47:57.359Z,8.50
2023-04-08T22:50:25.755Z,8.75
2023-04-08T22:52:54.084Z,7.50
2023-04-08T22:55:22.429Z,7.75
2023-04-08T22:57:50.827Z,6.00
2023-04-08T23:00:19.400Z,7.25
2023-04-08T23:02:47.901Z,6.75
2023-04-08T23:05:16.477Z,7.50
2023-04-08T23:07:44.909Z,7.75
2023-04-08T23:10:13.302Z,6.75
2023-04-08T23:12:42.644Z,7.50
2023-04-08T23:15:11.294Z,7.25
2023-04-08T23:17:39.664Z,8.00
2023-04-08T23:20:08.599Z,6.75
2023-04-08T23:22:37.275Z,8.00
2023-04-08T23:25:05.884Z,7.25
2023-04-08T23:27:34.502Z,6.75
2023-04-08T23:30:06.499Z,6.00
2023-04-08T23:32:35.761Z,7.50
2023-04-08T23:35:04.688Z,7.00
2023-04-08T23:37:33.082Z,7.50
2023-04-08T23:40:01.498Z,6.00
2023-04-08T23:42:29.869Z,6.25
2023-04-08T23:44:58.193Z,6.75
2023-04-08T23:47:26.690Z,7.00
2023-04-08T23:49:55.079Z,6.50
2023-04-08T23:52:23.462Z,5.75
2023-04-08T23:54:52.438Z,6.00
2023-04-08T23:57:23.811Z,6.00
2023-04-08T23:59:52.286Z,6.00
